X  Close Metar Aviation Weather Data     EHRD Rotterdam The Hague Airport
Temperature
10°C Temperature
4°C Dewpoint
67% Humidity



Wind
32 KM/H
20 MPH
9 M/S
17 KTS



320°
NW
Current Conditions

Mostly Scattered Clouds Mostly Scattered Clouds
Pressure 1011.85 (hPa) - 29.88 (inHg)
Visibility 6 (mile) - 9.7 (km)
Airport
Airport-code EHRD

Location: Rotterdam The Hague Airport
Distance: 27 (km)

Metar:
EHRD 191455Z AUTO 32017KT 260V020 9999 SCT022/// BKN030/// BKN035/// 10/04 Q1012 TEMPO -SHRA FEW020CB

Time: 19-04-2024 14:55 CEST